createdAt,value
2016-11-21T00:00:53.989Z,0
2016-11-21T00:02:08.655Z,0
2016-11-21T00:03:23.205Z,0
2016-11-21T00:04:37.398Z,0
2016-11-21T00:05:52.158Z,0
2016-11-21T00:07:07.387Z,0
2016-11-21T00:08:22.097Z,0
2016-11-21T00:09:36.512Z,0
2016-11-21T00:11:05.582Z,0
2016-11-21T00:12:20.697Z,0
2016-11-21T00:13:35.971Z,0
2016-11-21T00:14:50.749Z,0
2016-11-21T00:16:06.461Z,0
2016-11-21T00:17:20.922Z,0
2016-11-21T00:18:35.778Z,0
2016-11-21T00:19:50.536Z,0
2016-11-21T00:21:04.953Z,0
2016-11-21T00:22:19.549Z,0
2016-11-21T00:23:33.936Z,0
2016-11-21T00:24:49.357Z,0
2016-11-21T00:26:03.973Z,0
2016-11-21T00:27:19.470Z,0
2016-11-21T00:28:34.337Z,0
2016-11-21T00:29:49.342Z,0
2016-11-21T00:31:03.989Z,0
2016-11-21T00:32:18.717Z,0
2016-11-21T00:33:33.157Z,0
2016-11-21T00:34:48.372Z,0
2016-11-21T00:36:02.818Z,0
2016-11-21T00:37:17.728Z,0
2016-11-21T00:38:32.231Z,0
2016-11-21T00:40:01.705Z,0
2016-11-21T00:41:16.918Z,0
2016-11-21T00:42:31.777Z,0
2016-11-21T00:43:46.436Z,0
2016-11-21T00:45:01.469Z,0
2016-11-21T00:46:16.228Z,0
2016-11-21T00:47:30.572Z,0
2016-11-21T00:48:45.949Z,0
2016-11-21T00:50:00.331Z,0
2016-11-21T00:51:15.219Z,0
2016-11-21T00:52:29.834Z,0
2016-11-21T00:53:44.198Z,0
2016-11-21T00:54:58.797Z,0
2016-11-21T00:56:13.615Z,0
2016-11-21T00:57:28.716Z,0
2016-11-21T00:58:43.178Z,0
2016-11-21T00:59:57.942Z,0
2016-11-21T01:01:12.558Z,0
2016-11-21T01:02:26.809Z,0
2016-11-21T01:03:41.883Z,0
2016-11-21T01:04:56.675Z,0
2016-11-21T01:06:10.889Z,0
2016-11-21T01:07:25.804Z,0
2016-11-21T01:08:42.436Z,0
2016-11-21T01:09:56.981Z,0
2016-11-21T01:11:11.817Z,0
2016-11-21T01:12:26.256Z,0
2016-11-21T01:13:41.056Z,0
2016-11-21T01:14:55.297Z,0
2016-11-21T01:16:09.746Z,0
2016-11-21T01:17:24.256Z,0
2016-11-21T01:18:38.628Z,0
2016-11-21T01:19:53.088Z,0
2016-11-21T01:21:07.616Z,0
2016-11-21T01:22:22.007Z,0
2016-11-21T01:23:36.590Z,0
2016-11-21T01:24:51.288Z,0
2016-11-21T01:26:05.837Z,0
2016-11-21T01:27:20.088Z,0
2016-11-21T01:28:34.842Z,0
2016-11-21T01:29:49.241Z,0
2016-11-21T01:31:04.170Z,0
2016-11-21T01:32:18.813Z,0
2016-11-21T01:33:33.302Z,0
2016-11-21T01:34:47.874Z,0
2016-11-21T01:36:02.699Z,0
2016-11-21T01:37:17.428Z,0
2016-11-21T01:38:32.147Z,0
2016-11-21T01:39:46.632Z,0
2016-11-21T01:41:01.208Z,0
2016-11-21T01:42:15.637Z,0
2016-11-21T01:43:30.708Z,0
2016-11-21T01:44:45.961Z,0
2016-11-21T01:46:00.570Z,0
2016-11-21T01:47:15.065Z,0
2016-11-21T01:48:29.504Z,0
2016-11-21T01:49:44.196Z,0
2016-11-21T01:50:59.345Z,0
2016-11-21T01:52:13.686Z,0
2016-11-21T01:53:28.131Z,0
2016-11-21T01:54:42.524Z,0
2016-11-21T01:55:57.201Z,0
2016-11-21T01:57:11.940Z,0
2016-11-21T01:58:26.789Z,0
2016-11-21T01:59:41.663Z,0
2016-11-21T02:00:56.099Z,0
2016-11-21T02:02:10.910Z,0
2016-11-21T02:03:26.112Z,0
2016-11-21T02:04:40.640Z,0
2016-11-21T02:07:24.153Z,0
2016-11-21T02:08:39.112Z,0
2016-11-21T02:09:53.732Z,0
2016-11-21T02:11:08.017Z,0
2016-11-21T02:12:22.546Z,0
2016-11-21T02:13:37.221Z,0
2016-11-21T02:14:51.939Z,0
2016-11-21T02:16:06.363Z,0
2016-11-21T02:17:21.530Z,0
2016-11-21T02:18:35.931Z,0
2016-11-21T02:19:50.657Z,0
2016-11-21T02:21:05.300Z,0
2016-11-21T02:22:19.783Z,0
2016-11-21T02:23:34.383Z,0
2016-11-21T02:24:48.803Z,0
2016-11-21T02:26:05.819Z,0
2016-11-21T02:27:20.561Z,0
2016-11-21T02:28:34.827Z,0
2016-11-21T02:29:49.614Z,0
2016-11-21T02:31:03.898Z,0
2016-11-21T02:32:18.605Z,0
2016-11-21T02:33:33.183Z,0
2016-11-21T02:34:48.037Z,0
2016-11-21T02:36:02.707Z,0
2016-11-21T02:37:17.078Z,0
2016-11-21T02:38:31.736Z,0
2016-11-21T02:40:01.135Z,0
2016-11-21T02:41:15.523Z,0
2016-11-21T02:42:30.341Z,0
2016-11-21T02:43:45.148Z,0
2016-11-21T02:44:59.959Z,0
2016-11-21T02:46:14.872Z,0
2016-11-21T02:47:29.279Z,0
2016-11-21T02:48:43.817Z,0
2016-11-21T02:49:58.527Z,0
2016-11-21T02:51:27.873Z,0
2016-11-21T02:52:42.811Z,0
2016-11-21T02:53:57.399Z,0
2016-11-21T02:55:12.193Z,0
2016-11-21T02:56:27.012Z,0
2016-11-21T02:57:41.555Z,0
2016-11-21T02:58:56.709Z,0
2016-11-21T03:00:11.784Z,0
2016-11-21T03:01:26.132Z,0
2016-11-21T03:02:40.958Z,0
2016-11-21T03:03:55.744Z,0
2016-11-21T03:05:10.512Z,0
2016-11-21T03:06:39.653Z,0
2016-11-21T03:07:54.924Z,0
2016-11-21T03:09:09.290Z,0
2016-11-21T03:10:24.407Z,0
2016-11-21T03:11:39.161Z,0
2016-11-21T03:12:53.968Z,0
2016-11-21T03:14:08.775Z,0
2016-11-21T03:15:23.166Z,0
2016-11-21T03:16:37.859Z,0
2016-11-21T03:17:52.344Z,0
2016-11-21T03:19:07.145Z,0
2016-11-21T03:20:21.867Z,0
2016-11-21T03:21:36.310Z,0
2016-11-21T03:22:51.030Z,0
2016-11-21T03:24:05.377Z,0
2016-11-21T03:25:20.230Z,0
2016-11-21T03:26:35.047Z,0
2016-11-21T03:27:49.416Z,0
2016-11-21T03:29:04.488Z,0
2016-11-21T03:30:18.872Z,0
2016-11-21T03:33:03.872Z,0
2016-11-21T03:34:18.553Z,0
2016-11-21T03:35:33.021Z,0
2016-11-21T03:36:47.575Z,0
2016-11-21T03:38:02.032Z,0
2016-11-21T03:39:16.738Z,0
2016-11-21T03:40:31.519Z,0
2016-11-21T03:41:46.303Z,0
2016-11-21T03:43:00.973Z,0
2016-11-21T03:44:32.679Z,0
2016-11-21T03:45:47.368Z,0
2016-11-21T03:47:01.817Z,0
2016-11-21T03:48:17.064Z,0
2016-11-21T03:49:31.553Z,0
2016-11-21T03:51:01.393Z,0
2016-11-21T03:52:16.173Z,0
2016-11-21T03:53:30.749Z,0
2016-11-21T03:54:45.789Z,0
2016-11-21T03:56:00.708Z,0
2016-11-21T03:57:15.629Z,0
2016-11-21T03:58:30.967Z,0
2016-11-21T03:59:45.402Z,0
2016-11-21T04:01:00.458Z,0
2016-11-21T04:02:14.897Z,0
2016-11-21T04:03:30.270Z,0
2016-11-21T04:04:45.019Z,0
2016-11-21T04:05:59.826Z,0
2016-11-21T04:07:14.355Z,0
2016-11-21T04:08:29.339Z,0
2016-11-21T04:09:44.194Z,0
2016-11-21T04:10:58.965Z,0
2016-11-21T04:12:13.429Z,0
2016-11-21T04:13:28.239Z,0
2016-11-21T04:14:42.721Z,0
2016-11-21T04:15:57.454Z,0
2016-11-21T04:17:12.193Z,0
2016-11-21T04:18:26.676Z,0
2016-11-21T04:19:41.110Z,0
2016-11-21T04:20:55.553Z,0
2016-11-21T04:22:10.329Z,0
2016-11-21T04:23:25.165Z,0
2016-11-21T04:24:39.602Z,0
2016-11-21T04:25:54.428Z,0
2016-11-21T04:27:08.853Z,0
2016-11-21T04:28:24.015Z,0
2016-11-21T04:29:38.897Z,0
2016-11-21T04:30:53.340Z,0
2016-11-21T04:32:07.853Z,0
2016-11-21T04:33:22.377Z,0
2016-11-21T04:34:37.597Z,0
2016-11-21T04:35:52.437Z,0
2016-11-21T04:37:06.857Z,0
2016-11-21T04:38:21.789Z,0
2016-11-21T04:39:36.711Z,0
2016-11-21T04:40:52.592Z,0
2016-11-21T04:42:07.731Z,0
2016-11-21T04:43:22.539Z,0
2016-11-21T04:44:37.473Z,0
2016-11-21T04:45:52.226Z,0
2016-11-21T04:47:07.814Z,0
2016-11-21T04:48:23.110Z,0
2016-11-21T04:51:07.708Z,0
2016-11-21T04:52:22.822Z,0
2016-11-21T04:53:38.307Z,0
2016-11-21T04:54:54.293Z,0
2016-11-21T04:56:09.624Z,0
2016-11-21T04:57:26.603Z,0
2016-11-21T04:58:42.340Z,0
2016-11-21T04:59:57.394Z,0
2016-11-21T05:01:12.253Z,0
2016-11-21T05:02:28.909Z,0
2016-11-21T05:03:43.870Z,0
2016-11-21T05:04:58.287Z,0
2016-11-21T05:06:13.415Z,0
2016-11-21T05:07:27.997Z,0
2016-11-21T05:08:43.167Z,0
2016-11-21T05:09:58.178Z,0
2016-11-21T05:11:13.597Z,0
2016-11-21T05:12:28.843Z,0
2016-11-21T05:13:43.595Z,0
2016-11-21T05:15:06.500Z,0
2016-11-21T05:16:21.204Z,0
2016-11-21T05:17:36.306Z,0
2016-11-21T05:18:51.124Z,0
2016-11-21T05:20:06.107Z,0
2016-11-21T05:21:20.911Z,0
2016-11-21T05:22:35.600Z,0
2016-11-21T05:23:51.210Z,0
2016-11-21T05:25:06.503Z,0
2016-11-21T05:26:21.458Z,0
2016-11-21T05:27:36.959Z,0
2016-11-21T05:28:51.115Z,0
2016-11-21T05:30:06.415Z,0
2016-11-21T05:31:21.403Z,0
2016-11-21T05:32:35.816Z,0
2016-11-21T05:33:49.945Z,0
2016-11-21T05:35:04.397Z,0
2016-11-21T05:36:19.223Z,0
2016-11-21T05:37:34.662Z,0
2016-11-21T05:38:50.336Z,0
2016-11-21T05:40:06.453Z,0
2016-11-21T05:41:21.175Z,0
2016-11-21T05:42:35.752Z,0
2016-11-21T05:43:50.584Z,0
2016-11-21T05:45:05.364Z,0
2016-11-21T05:46:19.668Z,0
2016-11-21T05:47:34.083Z,0
2016-11-21T05:48:48.319Z,0
2016-11-21T05:50:02.883Z,0
2016-11-21T05:51:17.439Z,0
2016-11-21T05:52:31.950Z,0
2016-11-21T05:53:46.450Z,0
2016-11-21T05:55:00.871Z,0
2016-11-21T05:56:15.574Z,0
2016-11-21T05:57:30.521Z,0
2016-11-21T05:58:45.003Z,0
2016-11-21T05:59:59.422Z,0
2016-11-21T06:01:14.742Z,0
2016-11-21T06:02:29.451Z,0
2016-11-21T06:03:43.940Z,0
2016-11-21T06:04:58.121Z,0
2016-11-21T06:06:12.313Z,0
2016-11-21T06:07:27.081Z,0
2016-11-21T06:08:41.753Z,0
2016-11-21T06:09:56.694Z,0
2016-11-21T06:11:11.124Z,0
2016-11-21T06:12:26.082Z,0
2016-11-21T06:13:40.303Z,0
2016-11-21T06:14:55.270Z,0
2016-11-21T06:16:24.673Z,0
2016-11-21T06:17:39.198Z,0
2016-11-21T06:18:53.605Z,0
2016-11-21T06:20:10.662Z,0
2016-11-21T06:21:25.059Z,0
2016-11-21T06:22:40.041Z,0
2016-11-21T06:23:54.402Z,0
2016-11-21T06:25:08.901Z,0
2016-11-21T06:26:23.626Z,0
2016-11-21T06:27:38.078Z,0
2016-11-21T06:28:52.228Z,0
2016-11-21T06:30:06.914Z,0
2016-11-21T06:31:21.340Z,0
2016-11-21T06:32:36.156Z,0
2016-11-21T06:33:50.403Z,0
2016-11-21T06:35:05.251Z,0
2016-11-21T06:36:20.027Z,0
2016-11-21T06:37:34.494Z,0
2016-11-21T06:38:49.415Z,0
2016-11-21T06:40:03.929Z,0
2016-11-21T06:41:18.439Z,0
2016-11-21T06:42:32.555Z,0
2016-11-21T06:43:47.108Z,0
2016-11-21T06:45:02.172Z,0
2016-11-21T06:46:16.356Z,0
2016-11-21T06:47:30.411Z,0
2016-11-21T06:48:46.085Z,0
2016-11-21T06:50:00.340Z,0
2016-11-21T06:51:15.137Z,0
2016-11-21T06:52:29.347Z,0
2016-11-21T06:53:43.761Z,0
2016-11-21T06:54:58.339Z,0
2016-11-21T06:56:12.679Z,0
2016-11-21T06:57:27.421Z,0
2016-11-21T06:58:42.260Z,0
2016-11-21T06:59:56.754Z,0
2016-11-21T07:01:26.315Z,0
2016-11-21T07:02:40.770Z,0
2016-11-21T07:03:54.998Z,0
2016-11-21T07:05:09.414Z,5
2016-11-21T07:06:23.715Z,5
2016-11-21T07:07:38.314Z,5
2016-11-21T07:08:53.287Z,5
2016-11-21T07:10:07.691Z,10
2016-11-21T07:11:37.576Z,10
2016-11-21T07:12:51.871Z,10
2016-11-21T07:14:06.905Z,10
2016-11-21T07:15:20.981Z,15
2016-11-21T07:16:35.340Z,15
2016-11-21T07:17:49.648Z,15
2016-11-21T07:19:03.979Z,15
2016-11-21T07:20:18.405Z,15
2016-11-21T07:21:32.489Z,15
2016-11-21T07:22:47.270Z,15
2016-11-21T07:24:01.761Z,15
2016-11-21T07:25:16.514Z,15
2016-11-21T07:26:31.023Z,15
2016-11-21T07:27:45.700Z,20
2016-11-21T07:29:00.303Z,20
2016-11-21T07:30:14.520Z,20
2016-11-21T07:31:28.949Z,20
2016-11-21T07:32:43.715Z,20
2016-11-21T07:33:58.123Z,20
2016-11-21T07:35:12.824Z,20
2016-11-21T07:36:27.343Z,20
2016-11-21T07:37:44.034Z,20
2016-11-21T07:38:58.533Z,20
2016-11-21T07:40:12.951Z,20
2016-11-21T07:41:27.778Z,20
2016-11-21T07:42:42.713Z,20
2016-11-21T07:43:57.307Z,20
2016-11-21T07:45:12.327Z,20
2016-11-21T07:46:26.655Z,25
2016-11-21T07:47:40.835Z,25
2016-11-21T07:48:55.619Z,30
2016-11-21T07:50:10.408Z,30
2016-11-21T07:51:25.093Z,30
2016-11-21T07:52:39.955Z,35
2016-11-21T07:53:54.451Z,35
2016-11-21T07:55:09.213Z,35
2016-11-21T07:56:23.611Z,40
2016-11-21T07:57:38.150Z,40
2016-11-21T07:58:52.610Z,45
2016-11-21T08:00:07.014Z,45
2016-11-21T08:01:21.428Z,45
2016-11-21T08:02:36.208Z,45
2016-11-21T08:03:51.081Z,45
2016-11-21T08:05:05.932Z,40
2016-11-21T08:06:20.038Z,40
2016-11-21T08:07:34.847Z,40
2016-11-21T08:08:50.346Z,40
2016-11-21T08:10:08.017Z,45
2016-11-21T08:11:24.010Z,45
2016-11-21T08:12:40.547Z,50
2016-11-21T08:13:55.603Z,50
2016-11-21T08:15:09.768Z,55
2016-11-21T08:16:23.956Z,55
2016-11-21T08:17:39.470Z,60
2016-11-21T08:18:53.716Z,60
2016-11-21T08:20:08.548Z,60
2016-11-21T08:21:22.941Z,60
2016-11-21T08:22:52.978Z,55
2016-11-21T08:24:07.973Z,50
2016-11-21T08:25:22.369Z,45
2016-11-21T08:26:37.394Z,45
2016-11-21T08:28:06.911Z,40
2016-11-21T08:29:22.031Z,45
2016-11-21T08:30:36.818Z,45
2016-11-21T08:31:51.662Z,45
2016-11-21T08:33:06.387Z,50
2016-11-21T08:34:21.013Z,50
2016-11-21T08:35:35.296Z,50
2016-11-21T08:36:49.383Z,50
2016-11-21T08:38:03.965Z,55
2016-11-21T08:39:18.476Z,55
2016-11-21T08:40:33.453Z,55
2016-11-21T08:41:47.795Z,55
2016-11-21T08:43:02.423Z,55
2016-11-21T08:44:16.988Z,60
2016-11-21T08:45:31.376Z,60
2016-11-21T08:46:46.209Z,60
2016-11-21T08:48:01.108Z,60
2016-11-21T08:49:15.931Z,65
2016-11-21T08:50:30.383Z,70
2016-11-21T08:51:45.338Z,75
2016-11-21T08:53:00.026Z,75
2016-11-21T08:54:14.432Z,75
2016-11-21T08:55:31.324Z,75
2016-11-21T08:56:46.175Z,75
2016-11-21T08:58:15.785Z,70
2016-11-21T08:59:30.653Z,70
2016-11-21T09:00:45.005Z,70
2016-11-21T09:01:59.540Z,75
2016-11-21T09:03:14.047Z,75
2016-11-21T09:04:28.497Z,80
2016-11-21T09:05:42.812Z,85
2016-11-21T09:06:57.262Z,85
2016-11-21T09:08:11.795Z,85
2016-11-21T09:09:26.175Z,85
2016-11-21T09:10:40.407Z,90
2016-11-21T09:11:55.222Z,90
2016-11-21T09:13:09.437Z,90
2016-11-21T09:14:23.896Z,90
2016-11-21T09:15:38.468Z,85
2016-11-21T09:16:52.795Z,85
2016-11-21T09:18:07.626Z,80
2016-11-21T09:19:21.877Z,80
2016-11-21T09:20:36.010Z,80
2016-11-21T09:21:50.532Z,85
2016-11-21T09:23:04.835Z,85
2016-11-21T09:24:19.766Z,85
2016-11-21T09:25:34.080Z,85
2016-11-21T09:26:48.740Z,85
2016-11-21T09:28:03.140Z,85
2016-11-21T09:29:17.688Z,90
2016-11-21T09:30:32.299Z,90
2016-11-21T09:31:47.019Z,90
2016-11-21T09:33:02.499Z,90
2016-11-21T09:34:17.381Z,90
2016-11-21T09:35:31.692Z,90
2016-11-21T09:36:47.446Z,85
2016-11-21T09:38:01.989Z,85
2016-11-21T09:39:16.312Z,80
2016-11-21T09:40:30.487Z,75
2016-11-21T09:41:44.944Z,75
2016-11-21T09:43:00.012Z,70
2016-11-21T09:44:15.119Z,70
2016-11-21T09:45:29.715Z,65
2016-11-21T09:46:44.976Z,65
2016-11-21T09:48:00.455Z,65
2016-11-21T09:49:15.106Z,65
2016-11-21T09:50:44.562Z,65
2016-11-21T09:51:59.173Z,75
2016-11-21T09:53:13.423Z,80
2016-11-21T09:54:28.567Z,90
2016-11-21T09:55:43.579Z,100
2016-11-21T09:56:58.478Z,110
2016-11-21T09:58:12.917Z,120
2016-11-21T09:59:28.019Z,130
2016-11-21T10:00:42.722Z,135
2016-11-21T10:01:57.436Z,140
2016-11-21T10:03:11.819Z,135
2016-11-21T10:04:26.037Z,130
2016-11-21T10:05:40.960Z,130
2016-11-21T10:06:55.792Z,125
2016-11-21T10:08:24.753Z,125
2016-11-21T10:09:39.470Z,120
2016-11-21T10:10:54.387Z,110
2016-11-21T10:12:09.209Z,100
2016-11-21T10:13:26.141Z,90
2016-11-21T10:14:55.354Z,90
2016-11-21T10:16:09.451Z,90
2016-11-21T10:17:24.105Z,100
2016-11-21T10:18:38.675Z,110
2016-11-21T10:19:53.267Z,110
2016-11-21T10:21:08.118Z,105
2016-11-21T10:22:23.127Z,105
2016-11-21T10:23:37.755Z,95
2016-11-21T10:24:52.499Z,90
2016-11-21T10:26:06.717Z,85
2016-11-21T10:27:20.996Z,80
2016-11-21T10:28:35.467Z,80
2016-11-21T10:29:50.258Z,85
2016-11-21T10:31:05.051Z,90
2016-11-21T10:32:34.385Z,90
2016-11-21T10:33:48.617Z,90
2016-11-21T10:35:03.692Z,90
2016-11-21T10:36:18.213Z,85
2016-11-21T10:37:33.020Z,90
2016-11-21T10:38:47.784Z,90
2016-11-21T10:40:02.271Z,85
2016-11-21T10:41:16.611Z,85
2016-11-21T10:42:46.204Z,80
2016-11-21T10:44:01.210Z,80
2016-11-21T10:45:16.493Z,85
2016-11-21T10:46:30.737Z,90
2016-11-21T10:48:00.524Z,95
2016-11-21T10:49:15.386Z,100
2016-11-21T10:50:30.159Z,105
2016-11-21T10:51:44.657Z,110
2016-11-21T10:52:59.417Z,105
2016-11-21T10:54:14.810Z,100
2016-11-21T10:55:30.027Z,100
2016-11-21T10:56:44.382Z,100
2016-11-21T10:57:59.303Z,100
2016-11-21T10:59:14.498Z,95
2016-11-21T11:00:29.497Z,90
2016-11-21T11:01:43.853Z,90
2016-11-21T11:02:59.158Z,90
2016-11-21T11:04:13.419Z,90
2016-11-21T11:05:27.869Z,95
2016-11-21T11:06:43.591Z,90
2016-11-21T11:07:58.341Z,90
2016-11-21T11:09:27.342Z,85
2016-11-21T11:10:41.817Z,80
2016-11-21T11:11:56.075Z,80
2016-11-21T11:13:11.152Z,85
2016-11-21T11:14:25.552Z,85
2016-11-21T11:15:39.838Z,85
2016-11-21T11:16:54.313Z,85
2016-11-21T11:18:09.168Z,85
2016-11-21T11:19:24.360Z,85
2016-11-21T11:20:38.937Z,85
2016-11-21T11:21:53.516Z,85
2016-11-21T11:23:07.876Z,85
2016-11-21T11:24:22.605Z,85
2016-11-21T11:25:37.319Z,85
2016-11-21T11:26:52.184Z,85
2016-11-21T11:28:06.555Z,80
2016-11-21T11:29:20.856Z,80
2016-11-21T11:30:35.358Z,85
2016-11-21T11:31:52.663Z,85
2016-11-21T11:33:07.233Z,80
2016-11-21T11:34:21.861Z,80
2016-11-21T11:35:36.037Z,80
2016-11-21T11:36:50.447Z,75
2016-11-21T11:38:05.205Z,75
2016-11-21T11:39:19.935Z,70
2016-11-21T11:40:34.623Z,70
2016-11-21T11:41:49.552Z,70
2016-11-21T11:43:04.218Z,65
2016-11-21T11:44:18.733Z,65
2016-11-21T11:45:33.713Z,65
2016-11-21T11:46:48.032Z,65
2016-11-21T11:48:03.451Z,65
2016-11-21T11:49:17.905Z,65
2016-11-21T11:50:33.507Z,65
2016-11-21T11:51:47.692Z,65
2016-11-21T11:53:02.093Z,60
2016-11-21T11:54:16.357Z,55
2016-11-21T11:55:30.820Z,55
2016-11-21T11:56:45.622Z,55
2016-11-21T11:57:59.904Z,55
2016-11-21T11:59:14.478Z,60
2016-11-21T12:00:29.398Z,60
2016-11-21T12:01:43.767Z,60
2016-11-21T12:02:59.366Z,60
2016-11-21T12:04:14.254Z,60
2016-11-21T12:05:28.913Z,60
2016-11-21T12:06:43.373Z,65
2016-11-21T12:07:57.637Z,75
2016-11-21T12:09:12.687Z,75
2016-11-21T12:10:27.379Z,85
2016-11-21T12:13:11.777Z,90
2016-11-21T12:14:26.229Z,90
2016-11-21T12:15:41.064Z,90
2016-11-21T12:16:55.816Z,90
2016-11-21T12:18:10.402Z,90
2016-11-21T12:19:25.535Z,95
2016-11-21T12:20:40.647Z,90
2016-11-21T12:21:55.386Z,80
2016-11-21T12:23:10.004Z,80
2016-11-21T12:24:24.400Z,80
2016-11-21T12:25:39.875Z,85
2016-11-21T12:26:54.740Z,90
2016-11-21T12:28:09.379Z,95
2016-11-21T12:29:24.230Z,95
2016-11-21T12:30:39.320Z,95
2016-11-21T12:31:54.421Z,95
2016-11-21T12:33:09.825Z,95
2016-11-21T12:34:24.987Z,90
2016-11-21T12:35:39.484Z,85
2016-11-21T12:36:54.577Z,80
2016-11-21T12:38:09.354Z,70
2016-11-21T12:39:24.482Z,70
2016-11-21T12:40:39.139Z,70
2016-11-21T12:41:53.563Z,70
2016-11-21T12:43:08.300Z,70
2016-11-21T12:44:23.054Z,65
2016-11-21T12:45:37.952Z,60
2016-11-21T12:46:52.606Z,60
2016-11-21T12:48:06.914Z,60
2016-11-21T12:49:24.673Z,65
2016-11-21T12:50:39.894Z,70
2016-11-21T12:51:54.669Z,70
2016-11-21T12:53:08.788Z,75
2016-11-21T12:54:23.633Z,70
2016-11-21T12:55:38.074Z,65
2016-11-21T12:56:52.920Z,60
2016-11-21T12:58:07.437Z,55
2016-11-21T12:59:21.786Z,50
2016-11-21T13:00:37.329Z,55
2016-11-21T13:01:51.811Z,55
2016-11-21T13:03:06.724Z,55
2016-11-21T13:04:21.217Z,60
2016-11-21T13:05:35.718Z,60
2016-11-21T13:06:50.409Z,65
2016-11-21T13:08:04.941Z,65
2016-11-21T13:09:34.763Z,65
2016-11-21T13:10:49.457Z,65
2016-11-21T13:12:03.645Z,65
2016-11-21T13:13:18.300Z,65
2016-11-21T13:14:33.653Z,70
2016-11-21T13:16:03.477Z,75
2016-11-21T13:17:18.232Z,80
2016-11-21T13:18:32.579Z,75
2016-11-21T13:19:46.978Z,75
2016-11-21T13:21:01.233Z,75
2016-11-21T13:22:16.235Z,75
2016-11-21T13:23:31.061Z,75
2016-11-21T13:24:45.615Z,75
2016-11-21T13:26:00.113Z,70
2016-11-21T13:27:14.633Z,70
2016-11-21T13:28:29.227Z,70
2016-11-21T13:29:58.804Z,65
2016-11-21T13:31:13.536Z,60
2016-11-21T13:32:28.126Z,55
2016-11-21T13:33:42.677Z,55
2016-11-21T13:34:56.767Z,55
2016-11-21T13:36:11.221Z,55
2016-11-21T13:37:25.963Z,50
2016-11-21T13:38:40.364Z,50
2016-11-21T13:39:55.507Z,45
2016-11-21T13:41:09.958Z,50
2016-11-21T13:42:24.658Z,45
2016-11-21T13:43:39.258Z,35
2016-11-21T13:44:54.103Z,45
2016-11-21T13:46:09.201Z,40
2016-11-21T13:47:24.270Z,40
2016-11-21T13:48:38.932Z,45
2016-11-21T13:49:54.364Z,40
2016-11-21T13:51:08.801Z,45
2016-11-21T13:52:23.562Z,45
2016-11-21T13:53:37.989Z,40
2016-11-21T13:54:52.421Z,45
2016-11-21T13:56:07.068Z,45
2016-11-21T13:57:22.060Z,45
2016-11-21T13:58:36.520Z,40
2016-11-21T13:59:50.848Z,45
2016-11-21T14:01:05.966Z,40
2016-11-21T14:02:20.816Z,40
2016-11-21T14:03:35.464Z,40
2016-11-21T14:04:50.054Z,40
2016-11-21T14:06:04.466Z,40
2016-11-21T14:07:20.959Z,35
2016-11-21T14:08:35.180Z,35
2016-11-21T14:09:49.971Z,35
2016-11-21T14:11:04.757Z,35
2016-11-21T14:12:19.205Z,35
2016-11-21T14:13:34.186Z,35
2016-11-21T14:14:48.701Z,30
2016-11-21T14:16:03.303Z,30
2016-11-21T14:17:17.882Z,30
2016-11-21T14:18:32.220Z,30
2016-11-21T14:19:47.097Z,30
2016-11-21T14:21:02.636Z,30
2016-11-21T14:22:16.875Z,30
2016-11-21T14:23:32.262Z,25
2016-11-21T14:24:46.592Z,25
2016-11-21T14:26:00.931Z,25
2016-11-21T14:27:15.306Z,25
2016-11-21T14:28:29.382Z,25
2016-11-21T14:29:43.906Z,25
2016-11-21T14:30:58.082Z,25
2016-11-21T14:32:12.163Z,25
2016-11-21T14:33:26.255Z,25
2016-11-21T14:34:40.999Z,25
2016-11-21T14:35:55.827Z,20
2016-11-21T14:38:39.990Z,20
2016-11-21T14:39:54.320Z,20
2016-11-21T14:41:08.779Z,20
2016-11-21T14:42:22.913Z,20
2016-11-21T14:43:37.343Z,20
2016-11-21T14:44:51.404Z,20
2016-11-21T14:46:05.769Z,20
2016-11-21T14:47:20.669Z,20
2016-11-21T14:48:49.991Z,15
2016-11-21T14:50:04.091Z,20
2016-11-21T14:51:19.261Z,20
2016-11-21T14:52:33.736Z,15
2016-11-21T14:53:48.247Z,15
2016-11-21T14:55:03.099Z,15
2016-11-21T14:56:17.648Z,15
2016-11-21T14:57:32.063Z,15
2016-11-21T14:58:46.926Z,15
2016-11-21T15:00:15.837Z,15
2016-11-21T15:01:30.692Z,10
2016-11-21T15:02:45.218Z,10
2016-11-21T15:04:00.498Z,10
2016-11-21T15:05:14.861Z,10
2016-11-21T15:06:29.053Z,10
2016-11-21T15:07:43.284Z,10
2016-11-21T15:08:57.965Z,5
2016-11-21T15:10:12.823Z,5
2016-11-21T15:11:27.510Z,5
2016-11-21T15:12:42.094Z,5
2016-11-21T15:13:56.706Z,5
2016-11-21T15:15:11.172Z,5
2016-11-21T15:16:25.843Z,5
2016-11-21T15:17:41.459Z,5
2016-11-21T15:18:56.476Z,0
2016-11-21T15:20:11.687Z,0
2016-11-21T15:21:26.127Z,0
2016-11-21T15:22:40.590Z,0
2016-11-21T15:23:55.047Z,0
2016-11-21T15:25:11.614Z,0
2016-11-21T15:26:26.909Z,0
2016-11-21T15:27:41.585Z,0
2016-11-21T15:28:56.135Z,0
2016-11-21T15:30:10.788Z,0
2016-11-21T15:31:25.104Z,0
2016-11-21T15:32:39.475Z,0
2016-11-21T15:33:54.035Z,0
2016-11-21T15:35:08.556Z,0
2016-11-21T15:36:23.083Z,0
2016-11-21T15:37:37.450Z,0
2016-11-21T15:38:51.675Z,0
2016-11-21T15:40:06.262Z,0
2016-11-21T15:41:20.915Z,0
2016-11-21T15:42:35.992Z,0
2016-11-21T15:43:50.930Z,0
2016-11-21T15:45:05.550Z,0
2016-11-21T15:46:20.406Z,0
2016-11-21T15:47:35.522Z,0
2016-11-21T15:48:49.872Z,0
2016-11-21T15:50:04.062Z,0
2016-11-21T15:51:18.527Z,0
2016-11-21T15:52:33.158Z,0
2016-11-21T15:53:48.081Z,0
2016-11-21T15:55:02.466Z,0
2016-11-21T15:56:16.939Z,0
2016-11-21T15:57:31.034Z,0
2016-11-21T15:58:46.014Z,0
2016-11-21T16:00:00.808Z,0
2016-11-21T16:01:15.172Z,0
2016-11-21T16:02:29.768Z,0
2016-11-21T16:03:44.438Z,0
2016-11-21T16:04:59.121Z,0
2016-11-21T16:06:13.768Z,0
2016-11-21T16:07:28.333Z,0
2016-11-21T16:08:42.586Z,0
2016-11-21T16:09:57.058Z,0
2016-11-21T16:11:11.847Z,0
2016-11-21T16:12:26.606Z,0
2016-11-21T16:13:40.835Z,0
2016-11-21T16:14:55.178Z,0
2016-11-21T16:16:24.643Z,0
2016-11-21T16:17:39.308Z,0
2016-11-21T16:18:54.127Z,0
2016-11-21T16:20:08.958Z,0
2016-11-21T16:21:24.079Z,0
2016-11-21T16:22:38.727Z,0
2016-11-21T16:23:54.508Z,0
2016-11-21T16:25:09.565Z,0
2016-11-21T16:26:24.355Z,0
2016-11-21T16:27:39.189Z,0
2016-11-21T16:28:53.638Z,0
2016-11-21T16:30:08.880Z,0
2016-11-21T16:31:23.793Z,0
2016-11-21T16:32:38.638Z,0
2016-11-21T16:33:53.308Z,0
2016-11-21T16:35:07.384Z,0
2016-11-21T16:36:21.813Z,0
2016-11-21T16:37:36.487Z,0
2016-11-21T16:38:51.119Z,0
2016-11-21T16:40:05.288Z,0
2016-11-21T16:41:19.795Z,0
2016-11-21T16:42:36.868Z,0
2016-11-21T16:43:51.454Z,0
2016-11-21T16:45:06.237Z,0
2016-11-21T16:46:20.873Z,0
2016-11-21T16:47:35.125Z,0
2016-11-21T16:48:49.756Z,0
2016-11-21T16:50:04.394Z,0
2016-11-21T16:51:18.817Z,0
2016-11-21T16:52:50.152Z,0
2016-11-21T16:54:05.423Z,0
2016-11-21T16:55:19.890Z,0
2016-11-21T16:56:34.981Z,0
2016-11-21T16:57:49.519Z,0
2016-11-21T16:59:03.770Z,0
2016-11-21T17:00:19.507Z,0
2016-11-21T17:01:34.587Z,0
2016-11-21T17:02:49.089Z,0
2016-11-21T17:04:03.644Z,0
2016-11-21T17:05:18.924Z,0
2016-11-21T17:06:35.935Z,0
2016-11-21T17:07:52.165Z,0
2016-11-21T17:09:06.790Z,0
2016-11-21T17:10:21.884Z,0
2016-11-21T17:11:36.534Z,0
2016-11-21T17:12:51.860Z,0
2016-11-21T17:14:06.540Z,0
2016-11-21T17:15:20.935Z,0
2016-11-21T17:16:36.636Z,0
2016-11-21T17:17:51.520Z,0
2016-11-21T17:19:06.833Z,0
2016-11-21T17:20:25.021Z,0
2016-11-21T17:21:41.028Z,0
2016-11-21T17:22:56.010Z,0
2016-11-21T17:24:10.529Z,0
2016-11-21T17:25:25.479Z,0
2016-11-21T17:26:41.600Z,0
2016-11-21T17:27:56.135Z,0
2016-11-21T17:29:10.859Z,0
2016-11-21T17:30:25.377Z,0
2016-11-21T17:31:40.648Z,0
2016-11-21T17:32:55.340Z,0
2016-11-21T17:34:10.249Z,0
2016-11-21T17:35:25.416Z,0
2016-11-21T17:36:40.311Z,0
2016-11-21T17:37:55.174Z,0
2016-11-21T17:39:09.983Z,0
2016-11-21T17:40:24.441Z,0
2016-11-21T17:41:38.707Z,0
2016-11-21T17:42:53.629Z,0
2016-11-21T17:44:08.613Z,0
2016-11-21T17:45:22.964Z,0
2016-11-21T17:46:38.049Z,0
2016-11-21T17:47:52.593Z,0
2016-11-21T17:49:07.927Z,0
2016-11-21T17:50:23.193Z,0
2016-11-21T17:51:38.206Z,0
2016-11-21T17:52:52.661Z,0
2016-11-21T17:54:07.616Z,0
2016-11-21T17:55:22.421Z,0
2016-11-21T17:56:38.813Z,0
2016-11-21T17:57:53.197Z,0
2016-11-21T17:59:08.042Z,0
2016-11-21T18:00:26.082Z,0
2016-11-21T18:01:41.540Z,0
2016-11-21T18:02:56.693Z,0
2016-11-21T18:04:11.131Z,0
2016-11-21T18:05:25.337Z,0
2016-11-21T18:06:39.782Z,0
2016-11-21T18:07:54.738Z,0
2016-11-21T18:09:10.077Z,0
2016-11-21T18:10:25.760Z,0
2016-11-21T18:11:40.067Z,0
2016-11-21T18:12:55.253Z,0
2016-11-21T18:14:24.585Z,0
2016-11-21T18:15:39.135Z,0
2016-11-21T18:16:54.558Z,0
2016-11-21T18:18:08.885Z,0
2016-11-21T18:19:23.325Z,0
2016-11-21T18:20:38.141Z,0
2016-11-21T18:21:53.044Z,0